sensor_id;sensor_type;location;lat;lon;timestamp;pressure;altitude;pressure_sealevel;temperature;humidity
74613;BME280;63119;51.788;8.824;2023-11-19T00:00:46;99420.97;;;9.16;100.00
74613;BME280;63119;51.788;8.824;2023-11-19T00:03:12;99426.88;;;9.19;100.00
74613;BME280;63119;51.788;8.824;2023-11-19T00:05:38;99416.59;;;9.27;100.00
74613;BME280;63119;51.788;8.824;2023-11-19T00:08:04;99414.91;;;9.39;100.00
74613;BME280;63119;51.788;8.824;2023-11-19T00:10:30;99412.13;;;9.41;100.00
74613;BME280;63119;51.788;8.824;2023-11-19T00:12:56;99404.72;;;9.46;100.00
74613;BME280;63119;51.788;8.824;2023-11-19T00:15:22;99404.66;;;9.58;100.00
74613;BME280;63119;51.788;8.824;2023-11-19T00:17:49;99396.44;;;9.63;100.00
74613;BME280;63119;51.788;8.824;2023-11-19T00:20:16;99393.44;;;9.67;100.00
74613;BME280;63119;51.788;8.824;2023-11-19T00:22:42;99390.78;;;9.67;100.00
74613;BME280;63119;51.788;8.824;2023-11-19T00:25:08;99398.00;;;9.65;100.00
74613;BME280;63119;51.788;8.824;2023-11-19T00:27:33;99384.09;;;9.74;100.00
74613;BME280;63119;51.788;8.824;2023-11-19T00:29:58;99379.22;;;9.81;100.00
74613;BME280;63119;51.788;8.824;2023-11-19T00:32:24;99392.06;;;9.85;100.00
74613;BME280;63119;51.788;8.824;2023-11-19T00:34:49;99398.34;;;9.84;100.00
74613;BME280;63119;51.788;8.824;2023-11-19T00:37:15;99385.13;;;9.84;100.00
74613;BME280;63119;51.788;8.824;2023-11-19T00:39:41;99374.56;;;9.84;100.00
74613;BME280;63119;51.788;8.824;2023-11-19T00:42:06;99364.69;;;9.86;100.00
74613;BME280;63119;51.788;8.824;2023-11-19T00:44:31;99363.06;;;9.97;100.00
74613;BME280;63119;51.788;8.824;2023-11-19T00:46:57;99362.84;;;10.00;100.00
74613;BME280;63119;51.788;8.824;2023-11-19T00:49:22;99358.03;;;10.05;100.00
74613;BME280;63119;51.788;8.824;2023-11-19T00:51:47;99348.91;;;10.09;100.00
74613;BME280;63119;51.788;8.824;2023-11-19T00:54:12;99349.88;;;10.08;100.00
74613;BME280;63119;51.788;8.824;2023-11-19T00:56:38;99343.91;;;10.17;100.00
74613;BME280;63119;51.788;8.824;2023-11-19T00:59:03;99341.75;;;10.22;100.00
74613;BME280;63119;51.788;8.824;2023-11-19T01:01:29;99342.25;;;10.27;100.00
74613;BME280;63119;51.788;8.824;2023-11-19T01:03:55;99335.03;;;10.29;100.00
74613;BME280;63119;51.788;8.824;2023-11-19T01:06:31;99327.09;;;10.29;100.00
74613;BME280;63119;51.788;8.824;2023-11-19T01:08:57;99329.53;;;10.32;100.00
74613;BME280;63119;51.788;8.824;2023-11-19T01:11:23;99339.38;;;10.30;100.00
74613;BME280;63119;51.788;8.824;2023-11-19T01:13:49;99337.56;;;10.30;100.00
74613;BME280;63119;51.788;8.824;2023-11-19T01:16:15;99333.38;;;10.39;100.00
74613;BME280;63119;51.788;8.824;2023-11-19T01:18:41;99324.22;;;10.43;100.00
74613;BME280;63119;51.788;8.824;2023-11-19T01:21:06;99332.16;;;10.43;100.00
74613;BME280;63119;51.788;8.824;2023-11-19T01:23:31;99340.84;;;10.45;100.00
74613;BME280;63119;51.788;8.824;2023-11-19T01:25:57;99338.19;;;10.45;100.00
74613;BME280;63119;51.788;8.824;2023-11-19T01:28:23;99335.78;;;10.53;100.00
74613;BME280;63119;51.788;8.824;2023-11-19T01:30:50;99337.59;;;10.53;100.00
74613;BME280;63119;51.788;8.824;2023-11-19T01:33:15;99328.81;;;10.52;100.00
74613;BME280;63119;51.788;8.824;2023-11-19T01:35:41;99336.00;;;10.61;100.00
74613;BME280;63119;51.788;8.824;2023-11-19T01:38:06;99338.81;;;10.60;100.00
74613;BME280;63119;51.788;8.824;2023-11-19T01:40:33;99335.06;;;10.62;100.00
74613;BME280;63119;51.788;8.824;2023-11-19T01:42:59;99327.03;;;10.64;100.00
74613;BME280;63119;51.788;8.824;2023-11-19T01:45:28;99321.81;;;10.73;100.00
74613;BME280;63119;51.788;8.824;2023-11-19T01:47:58;99309.81;;;10.80;100.00
74613;BME280;63119;51.788;8.824;2023-11-19T01:50:24;99307.50;;;10.87;100.00
74613;BME280;63119;51.788;8.824;2023-11-19T01:52:52;99320.59;;;10.88;100.00
74613;BME280;63119;51.788;8.824;2023-11-19T01:55:19;99310.25;;;10.85;100.00
74613;BME280;63119;51.788;8.824;2023-11-19T01:57:45;99308.97;;;10.91;100.00
74613;BME280;63119;51.788;8.824;2023-11-19T02:00:12;99310.63;;;10.92;100.00
74613;BME280;63119;51.788;8.824;2023-11-19T02:02:39;99309.22;;;10.88;100.00
74613;BME280;63119;51.788;8.824;2023-11-19T02:05:05;99304.38;;;10.93;100.00
74613;BME280;63119;51.788;8.824;2023-11-19T02:07:31;99286.44;;;10.85;100.00
74613;BME280;63119;51.788;8.824;2023-11-19T02:09:57;99287.53;;;10.94;100.00
74613;BME280;63119;51.788;8.824;2023-11-19T02:12:25;99279.72;;;10.92;100.00
74613;BME280;63119;51.788;8.824;2023-11-19T02:14:50;99261.88;;;10.94;100.00
74613;BME280;63119;51.788;8.824;2023-11-19T02:19:51;99257.53;;;11.05;100.00
74613;BME280;63119;51.788;8.824;2023-11-19T02:22:16;99254.88;;;11.05;100.00
74613;BME280;63119;51.788;8.824;2023-11-19T02:24:42;99251.78;;;11.00;100.00
74613;BME280;63119;51.788;8.824;2023-11-19T02:27:13;99257.69;;;11.03;100.00
74613;BME280;63119;51.788;8.824;2023-11-19T02:29:41;99253.19;;;11.04;100.00
74613;BME280;63119;51.788;8.824;2023-11-19T02:32:06;99250.69;;;11.02;100.00
74613;BME280;63119;51.788;8.824;2023-11-19T02:34:34;99247.59;;;10.97;100.00
74613;BME280;63119;51.788;8.824;2023-11-19T02:36:59;99256.44;;;11.07;100.00
74613;BME280;63119;51.788;8.824;2023-11-19T02:39:25;99241.91;;;11.02;100.00
74613;BME280;63119;51.788;8.824;2023-11-19T02:41:51;99235.25;;;11.07;100.00
74613;BME280;63119;51.788;8.824;2023-11-19T02:44:18;99227.22;;;11.09;100.00
74613;BME280;63119;51.788;8.824;2023-11-19T02:46:43;99222.16;;;11.06;100.00
74613;BME280;63119;51.788;8.824;2023-11-19T02:49:08;99220.81;;;11.11;100.00
74613;BME280;63119;51.788;8.824;2023-11-19T02:51:33;99209.63;;;11.08;100.00
74613;BME280;63119;51.788;8.824;2023-11-19T02:54:00;99212.16;;;11.09;100.00
74613;BME280;63119;51.788;8.824;2023-11-19T02:56:25;99211.78;;;11.14;100.00
74613;BME280;63119;51.788;8.824;2023-11-19T02:58:51;99203.56;;;11.17;100.00
74613;BME280;63119;51.788;8.824;2023-11-19T03:01:23;99200.81;;;11.18;100.00
74613;BME280;63119;51.788;8.824;2023-11-19T03:03:54;99211.41;;;11.18;100.00
74613;BME280;63119;51.788;8.824;2023-11-19T03:06:20;99222.25;;;11.15;100.00
74613;BME280;63119;51.788;8.824;2023-11-19T03:08:47;99221.25;;;11.16;100.00
74613;BME280;63119;51.788;8.824;2023-11-19T03:11:13;99225.47;;;11.19;100.00
74613;BME280;63119;51.788;8.824;2023-11-19T03:13:38;99210.81;;;11.15;100.00
74613;BME280;63119;51.788;8.824;2023-11-19T03:16:03;99225.00;;;11.14;100.00
74613;BME280;63119;51.788;8.824;2023-11-19T03:18:29;99224.50;;;11.20;100.00
74613;BME280;63119;51.788;8.824;2023-11-19T03:20:54;99209.97;;;11.14;100.00
74613;BME280;63119;51.788;8.824;2023-11-19T03:23:19;99204.53;;;11.16;100.00
74613;BME280;63119;51.788;8.824;2023-11-19T03:25:44;99189.81;;;11.23;100.00
74613;BME280;63119;51.788;8.824;2023-11-19T03:28:10;99190.03;;;11.31;100.00
74613;BME280;63119;51.788;8.824;2023-11-19T03:30:36;99186.41;;;11.32;100.00
74613;BME280;63119;51.788;8.824;2023-11-19T03:33:01;99195.03;;;11.45;100.00
74613;BME280;63119;51.788;8.824;2023-11-19T03:35:27;99195.91;;;11.55;100.00
74613;BME280;63119;51.788;8.824;2023-11-19T03:37:53;99194.94;;;11.56;100.00
74613;BME280;63119;51.788;8.824;2023-11-19T03:40:18;99184.69;;;11.63;100.00
74613;BME280;63119;51.788;8.824;2023-11-19T03:42:47;99183.84;;;11.62;100.00
74613;BME280;63119;51.788;8.824;2023-11-19T03:45:13;99176.63;;;11.64;100.00
74613;BME280;63119;51.788;8.824;2023-11-19T03:47:38;99172.72;;;11.68;100.00
74613;BME280;63119;51.788;8.824;2023-11-19T03:50:05;99183.94;;;11.72;100.00
74613;BME280;63119;51.788;8.824;2023-11-19T03:52:31;99178.41;;;11.84;100.00
74613;BME280;63119;51.788;8.824;2023-11-19T03:54:56;99171.97;;;11.77;100.00
74613;BME280;63119;51.788;8.824;2023-11-19T03:57:24;99183.66;;;11.75;100.00
74613;BME280;63119;51.788;8.824;2023-11-19T03:59:49;99192.38;;;11.86;100.00
74613;BME280;63119;51.788;8.824;2023-11-19T04:02:16;99190.97;;;11.82;100.00
74613;BME280;63119;51.788;8.824;2023-11-19T04:04:41;99196.44;;;11.90;100.00
74613;BME280;63119;51.788;8.824;2023-11-19T04:07:07;99202.34;;;11.94;100.00
74613;BME280;63119;51.788;8.824;2023-11-19T04:09:32;99196.31;;;11.92;100.00
74613;BME280;63119;51.788;8.824;2023-11-19T04:11:58;99194.38;;;11.94;100.00
74613;BME280;63119;51.788;8.824;2023-11-19T04:14:24;99201.94;;;11.98;100.00
74613;BME280;63119;51.788;8.824;2023-11-19T04:16:49;99223.41;;;11.95;100.00
74613;BME280;63119;51.788;8.824;2023-11-19T04:19:14;99228.69;;;11.95;100.00
74613;BME280;63119;51.788;8.824;2023-11-19T04:21:40;99237.94;;;12.01;100.00
74613;BME280;63119;51.788;8.824;2023-11-19T04:24:07;99233.38;;;12.03;100.00
74613;BME280;63119;51.788;8.824;2023-11-19T04:26:32;99214.38;;;12.07;100.00
74613;BME280;63119;51.788;8.824;2023-11-19T04:28:57;99211.31;;;12.02;100.00
74613;BME280;63119;51.788;8.824;2023-11-19T04:31:24;99208.47;;;11.94;100.00
74613;BME280;63119;51.788;8.824;2023-11-19T04:33:53;99212.94;;;11.94;100.00
74613;BME280;63119;51.788;8.824;2023-11-19T04:36:19;99206.00;;;12.02;100.00
74613;BME280;63119;51.788;8.824;2023-11-19T04:38:45;99197.91;;;12.04;100.00
74613;BME280;63119;51.788;8.824;2023-11-19T04:41:11;99201.84;;;12.10;100.00
74613;BME280;63119;51.788;8.824;2023-11-19T04:43:36;99198.75;;;12.04;100.00
74613;BME280;63119;51.788;8.824;2023-11-19T04:46:03;99210.50;;;12.12;100.00
74613;BME280;63119;51.788;8.824;2023-11-19T04:48:29;99193.91;;;12.10;100.00
74613;BME280;63119;51.788;8.824;2023-11-19T04:50:54;99187.28;;;12.04;100.00
74613;BME280;63119;51.788;8.824;2023-11-19T04:53:19;99179.88;;;11.98;100.00
74613;BME280;63119;51.788;8.824;2023-11-19T04:55:44;99184.53;;;12.05;100.00
74613;BME280;63119;51.788;8.824;2023-11-19T04:58:10;99196.63;;;11.98;100.00
74613;BME280;63119;51.788;8.824;2023-11-19T05:00:35;99189.13;;;12.03;100.00
74613;BME280;63119;51.788;8.824;2023-11-19T05:03:00;99176.94;;;12.01;100.00
74613;BME280;63119;51.788;8.824;2023-11-19T05:05:26;99174.84;;;11.95;100.00
74613;BME280;63119;51.788;8.824;2023-11-19T05:07:52;99177.41;;;12.06;100.00
74613;BME280;63119;51.788;8.824;2023-11-19T05:10:17;99177.38;;;11.96;100.00
74613;BME280;63119;51.788;8.824;2023-11-19T05:12:42;99175.41;;;11.98;100.00
74613;BME280;63119;51.788;8.824;2023-11-19T05:15:08;99185.75;;;12.01;100.00
74613;BME280;63119;51.788;8.824;2023-11-19T05:17:34;99177.00;;;12.11;100.00
74613;BME280;63119;51.788;8.824;2023-11-19T05:19:59;99182.31;;;12.11;100.00
74613;BME280;63119;51.788;8.824;2023-11-19T05:22:24;99175.78;;;12.15;100.00
74613;BME280;63119;51.788;8.824;2023-11-19T05:24:51;99179.00;;;12.18;100.00
74613;BME280;63119;51.788;8.824;2023-11-19T05:27:16;99170.78;;;12.21;100.00
74613;BME280;63119;51.788;8.824;2023-11-19T05:29:42;99189.34;;;12.21;100.00
74613;BME280;63119;51.788;8.824;2023-11-19T05:32:08;99176.19;;;12.20;100.00
74613;BME280;63119;51.788;8.824;2023-11-19T05:34:33;99173.13;;;12.15;100.00
74613;BME280;63119;51.788;8.824;2023-11-19T05:36:59;99187.19;;;12.05;100.00
74613;BME280;63119;51.788;8.824;2023-11-19T05:39:24;99184.25;;;12.09;100.00
74613;BME280;63119;51.788;8.824;2023-11-19T05:41:50;99191.09;;;12.11;100.00
74613;BME280;63119;51.788;8.824;2023-11-19T05:44:15;99187.44;;;12.02;100.00
74613;BME280;63119;51.788;8.824;2023-11-19T05:46:41;99197.78;;;12.05;100.00
74613;BME280;63119;51.788;8.824;2023-11-19T05:49:08;99201.13;;;12.07;100.00
74613;BME280;63119;51.788;8.824;2023-11-19T05:51:37;99200.34;;;12.17;100.00
74613;BME280;63119;51.788;8.824;2023-11-19T05:54:06;99208.13;;;12.09;100.00
74613;BME280;63119;51.788;8.824;2023-11-19T05:56:32;99211.22;;;12.14;100.00
74613;BME280;63119;51.788;8.824;2023-11-19T05:58:58;99219.91;;;12.16;100.00
74613;BME280;63119;51.788;8.824;2023-11-19T06:01:25;99209.81;;;12.10;100.00
74613;BME280;63119;51.788;8.824;2023-11-19T06:03:51;99213.81;;;12.04;100.00
74613;BME280;63119;51.788;8.824;2023-11-19T06:06:17;99224.31;;;12.05;100.00
74613;BME280;63119;51.788;8.824;2023-11-19T06:08:42;99220.47;;;11.98;100.00
74613;BME280;63119;51.788;8.824;2023-11-19T06:11:07;99224.56;;;12.02;100.00
74613;BME280;63119;51.788;8.824;2023-11-19T06:13:32;99226.78;;;11.97;100.00
74613;BME280;63119;51.788;8.824;2023-11-19T06:15:58;99227.91;;;12.04;100.00
74613;BME280;63119;51.788;8.824;2023-11-19T06:18:23;99213.53;;;11.97;100.00
74613;BME280;63119;51.788;8.824;2023-11-19T06:20:48;99214.06;;;11.91;100.00
74613;BME280;63119;51.788;8.824;2023-11-19T06:23:15;99218.34;;;11.92;100.00
74613;BME280;63119;51.788;8.824;2023-11-19T06:25:40;99223.97;;;11.99;100.00
74613;BME280;63119;51.788;8.824;2023-11-19T06:28:05;99224.50;;;11.93;100.00
74613;BME280;63119;51.788;8.824;2023-11-19T06:30:31;99213.78;;;11.94;100.00
74613;BME280;63119;51.788;8.824;2023-11-19T06:32:57;99210.56;;;11.91;100.00
74613;BME280;63119;51.788;8.824;2023-11-19T06:35:23;99208.28;;;11.86;100.00
74613;BME280;63119;51.788;8.824;2023-11-19T06:37:48;99212.19;;;11.82;100.00
74613;BME280;63119;51.788;8.824;2023-11-19T06:40:13;99205.44;;;11.78;100.00
74613;BME280;63119;51.788;8.824;2023-11-19T06:42:41;99219.81;;;11.76;100.00
74613;BME280;63119;51.788;8.824;2023-11-19T06:45:06;99233.13;;;11.85;99.75
74613;BME280;63119;51.788;8.824;2023-11-19T06:47:32;99228.34;;;11.79;99.57
74613;BME280;63119;51.788;8.824;2023-11-19T06:49:58;99234.59;;;11.78;97.60
74613;BME280;63119;51.788;8.824;2023-11-19T06:52:23;99234.78;;;11.86;97.15
74613;BME280;63119;51.788;8.824;2023-11-19T06:54:49;99235.31;;;11.80;95.98
74613;BME280;63119;51.788;8.824;2023-11-19T06:57:15;99248.31;;;11.83;96.76
74613;BME280;63119;51.788;8.824;2023-11-19T06:59:40;99240.94;;;11.87;95.89
74613;BME280;63119;51.788;8.824;2023-11-19T07:02:06;99237.31;;;11.88;95.35
74613;BME280;63119;51.788;8.824;2023-11-19T07:04:31;99233.94;;;11.86;94.84
74613;BME280;63119;51.788;8.824;2023-11-19T07:06:58;99238.88;;;11.90;93.91
74613;BME280;63119;51.788;8.824;2023-11-19T07:09:23;99237.44;;;11.86;93.89
74613;BME280;63119;51.788;8.824;2023-11-19T07:11:49;99230.66;;;11.93;93.84
74613;BME280;63119;51.788;8.824;2023-11-19T07:14:17;99244.94;;;11.81;94.27
74613;BME280;63119;51.788;8.824;2023-11-19T07:16:43;99244.53;;;11.86;94.84
74613;BME280;63119;51.788;8.824;2023-11-19T07:19:08;99239.03;;;11.98;93.68
74613;BME280;63119;51.788;8.824;2023-11-19T07:21:34;99243.81;;;12.04;94.39
74613;BME280;63119;51.788;8.824;2023-11-19T07:24:00;99238.19;;;11.98;94.36
74613;BME280;63119;51.788;8.824;2023-11-19T07:26:25;99252.56;;;11.95;94.98
74613;BME280;63119;51.788;8.824;2023-11-19T07:28:52;99264.69;;;11.88;95.77
74613;BME280;63119;51.788;8.824;2023-11-19T07:31:17;99259.63;;;11.85;95.22
74613;BME280;63119;51.788;8.824;2023-11-19T07:33:46;99250.31;;;11.91;94.41
74613;BME280;63119;51.788;8.824;2023-11-19T07:36:12;99259.94;;;11.92;94.32
74613;BME280;63119;51.788;8.824;2023-11-19T07:38:38;99268.03;;;11.90;94.67
74613;BME280;63119;51.788;8.824;2023-11-19T07:41:05;99266.00;;;11.83;94.19
74613;BME280;63119;51.788;8.824;2023-11-19T07:43:31;99272.63;;;11.88;94.56
74613;BME280;63119;51.788;8.824;2023-11-19T07:45:56;99277.69;;;11.91;93.72
74613;BME280;63119;51.788;8.824;2023-11-19T07:48:36;99270.81;;;12.10;93.48
74613;BME280;63119;51.788;8.824;2023-11-19T07:51:01;99269.13;;;12.09;92.93
74613;BME280;63119;51.788;8.824;2023-11-19T07:53:27;99267.84;;;12.03;92.96
74613;BME280;63119;51.788;8.824;2023-11-19T07:55:52;99267.44;;;12.07;92.46
74613;BME280;63119;51.788;8.824;2023-11-19T07:58:17;99267.00;;;12.02;92.84
74613;BME280;63119;51.788;8.824;2023-11-19T08:00:43;99278.25;;;12.16;92.48
74613;BME280;63119;51.788;8.824;2023-11-19T08:03:08;99275.13;;;12.11;92.00
74613;BME280;63119;51.788;8.824;2023-11-19T08:05:33;99270.06;;;12.07;91.38
74613;BME280;63119;51.788;8.824;2023-11-19T08:07:59;99278.88;;;12.08;91.42
74613;BME280;63119;51.788;8.824;2023-11-19T08:10:24;99282.38;;;12.09;90.34
74613;BME280;63119;51.788;8.824;2023-11-19T08:12:49;99290.97;;;12.22;90.63
74613;BME280;63119;51.788;8.824;2023-11-19T08:15:15;99288.25;;;12.12;90.57
74613;BME280;63119;51.788;8.824;2023-11-19T08:17:41;99291.28;;;12.07;91.42
74613;BME280;63119;51.788;8.824;2023-11-19T08:20:07;99298.41;;;12.07;91.30
74613;BME280;63119;51.788;8.824;2023-11-19T08:22:36;99294.94;;;12.07;91.29
74613;BME280;63119;51.788;8.824;2023-11-19T08:25:01;99305.91;;;12.23;90.53
74613;BME280;63119;51.788;8.824;2023-11-19T08:27:26;99300.00;;;12.19;90.12
74613;BME280;63119;51.788;8.824;2023-11-19T08:29:54;99303.72;;;12.28;90.06
74613;BME280;63119;51.788;8.824;2023-11-19T08:32:24;99298.41;;;12.28;89.88
74613;BME280;63119;51.788;8.824;2023-11-19T08:34:49;99301.59;;;12.52;88.22
74613;BME280;63119;51.788;8.824;2023-11-19T08:37:14;99297.69;;;12.56;88.11
74613;BME280;63119;51.788;8.824;2023-11-19T08:39:40;99300.19;;;12.48;88.68
74613;BME280;63119;51.788;8.824;2023-11-19T08:42:07;99301.06;;;12.58;87.98
74613;BME280;63119;51.788;8.824;2023-11-19T08:44:32;99306.31;;;12.48;88.20
74613;BME280;63119;51.788;8.824;2023-11-19T08:46:57;99304.94;;;12.54;88.88
74613;BME280;63119;51.788;8.824;2023-11-19T08:49:23;99301.03;;;12.48;88.56
74613;BME280;63119;51.788;8.824;2023-11-19T08:51:48;99303.84;;;12.56;87.94
74613;BME280;63119;51.788;8.824;2023-11-19T08:54:14;99315.31;;;12.57;87.79
74613;BME280;63119;51.788;8.824;2023-11-19T08:56:39;99312.22;;;12.61;87.42
74613;BME280;63119;51.788;8.824;2023-11-19T08:59:05;99314.50;;;12.66;87.63
74613;BME280;63119;51.788;8.824;2023-11-19T09:01:30;99302.06;;;12.67;86.79
74613;BME280;63119;51.788;8.824;2023-11-19T09:03:55;99309.78;;;12.70;87.39
74613;BME280;63119;51.788;8.824;2023-11-19T09:06:21;99314.66;;;12.74;86.07
74613;BME280;63119;51.788;8.824;2023-11-19T09:08:46;99316.19;;;12.67;86.24
74613;BME280;63119;51.788;8.824;2023-11-19T09:11:11;99329.31;;;12.69;85.63
74613;BME280;63119;51.788;8.824;2023-11-19T09:13:37;99319.66;;;12.68;85.15
74613;BME280;63119;51.788;8.824;2023-11-19T09:16:02;99320.25;;;12.71;84.78
74613;BME280;63119;51.788;8.824;2023-11-19T09:18:29;99330.56;;;12.95;88.12
74613;BME280;63119;51.788;8.824;2023-11-19T09:20:54;99327.41;;;12.80;84.65
74613;BME280;63119;51.788;8.824;2023-11-19T09:23:19;99320.59;;;12.87;84.22
74613;BME280;63119;51.788;8.824;2023-11-19T09:25:45;99320.69;;;12.76;84.75
74613;BME280;63119;51.788;8.824;2023-11-19T09:28:10;99317.31;;;12.74;85.73
74613;BME280;63119;51.788;8.824;2023-11-19T09:30:35;99304.50;;;12.79;85.99
74613;BME280;63119;51.788;8.824;2023-11-19T09:33:01;99326.84;;;13.17;88.00
74613;BME280;63119;51.788;8.824;2023-11-19T09:35:26;99320.59;;;13.37;82.63
74613;BME280;63119;51.788;8.824;2023-11-19T09:37:52;99330.41;;;13.75;81.88
74613;BME280;63119;51.788;8.824;2023-11-19T09:40:18;99337.13;;;13.69;80.25
74613;BME280;63119;51.788;8.824;2023-11-19T09:42:44;99339.59;;;13.23;81.73
74613;BME280;63119;51.788;8.824;2023-11-19T09:45:16;99340.22;;;13.05;82.96
74613;BME280;63119;51.788;8.824;2023-11-19T09:47:46;99339.88;;;12.89;83.86
74613;BME280;63119;51.788;8.824;2023-11-19T09:50:16;99336.69;;;12.65;84.74
74613;BME280;63119;51.788;8.824;2023-11-19T09:52:43;99347.31;;;12.65;85.95
74613;BME280;63119;51.788;8.824;2023-11-19T09:55:08;99343.22;;;12.51;86.86
74613;BME280;63119;51.788;8.824;2023-11-19T09:57:34;99344.84;;;12.43;86.91
74613;BME280;63119;51.788;8.824;2023-11-19T10:00:02;99340.69;;;12.50;86.42
74613;BME280;63119;51.788;8.824;2023-11-19T10:02:31;99335.56;;;12.58;86.63
74613;BME280;63119;51.788;8.824;2023-11-19T10:04:59;99337.72;;;12.74;86.44
74613;BME280;63119;51.788;8.824;2023-11-19T10:07:24;99346.97;;;12.79;86.19
74613;BME280;63119;51.788;8.824;2023-11-19T10:09:50;99334.56;;;12.89;85.47
74613;BME280;63119;51.788;8.824;2023-11-19T10:12:15;99333.16;;;12.85;85.07
74613;BME280;63119;51.788;8.824;2023-11-19T10:14:42;99327.72;;;12.87;84.89
74613;BME280;63119;51.788;8.824;2023-11-19T10:17:08;99324.13;;;12.97;85.44
74613;BME280;63119;51.788;8.824;2023-11-19T10:19:33;99318.06;;;13.26;84.48
74613;BME280;63119;51.788;8.824;2023-11-19T10:22:06;99325.38;;;13.52;82.19
74613;BME280;63119;51.788;8.824;2023-11-19T10:24:32;99314.72;;;14.10;80.32
74613;BME280;63119;51.788;8.824;2023-11-19T10:26:59;99321.13;;;14.27;78.48
74613;BME280;63119;51.788;8.824;2023-11-19T10:29:24;99326.31;;;14.38;77.13
74613;BME280;63119;51.788;8.824;2023-11-19T10:31:57;99320.84;;;14.30;77.89
74613;BME280;63119;51.788;8.824;2023-11-19T10:34:26;99315.28;;;14.04;77.67
74613;BME280;63119;51.788;8.824;2023-11-19T10:36:52;99312.50;;;13.86;78.55
74613;BME280;63119;51.788;8.824;2023-11-19T10:39:17;99311.97;;;13.73;79.56
74613;BME280;63119;51.788;8.824;2023-11-19T10:41:43;99308.72;;;13.60;79.45
74613;BME280;63119;51.788;8.824;2023-11-19T10:44:08;99309.00;;;13.47;79.89
74613;BME280;63119;51.788;8.824;2023-11-19T10:46:40;99302.00;;;13.37;80.26
74613;BME280;63119;51.788;8.824;2023-11-19T10:49:07;99302.97;;;13.26;80.56
74613;BME280;63119;51.788;8.824;2023-11-19T10:51:32;99296.78;;;13.26;80.38
74613;BME280;63119;51.788;8.824;2023-11-19T10:54:02;99308.53;;;13.13;81.77
74613;BME280;63119;51.788;8.824;2023-11-19T10:56:30;99307.44;;;13.16;81.78
74613;BME280;63119;51.788;8.824;2023-11-19T10:58:56;99291.38;;;13.27;81.65
74613;BME280;63119;51.788;8.824;2023-11-19T11:01:27;99295.56;;;13.30;80.80
74613;BME280;63119;51.788;8.824;2023-11-19T11:03:57;99304.22;;;13.41;80.35
74613;BME280;63119;51.788;8.824;2023-11-19T11:06:24;99299.34;;;13.27;80.61
74613;BME280;63119;51.788;8.824;2023-11-19T11:08:51;99303.25;;;13.33;80.53
74613;BME280;63119;51.788;8.824;2023-11-19T11:11:17;99288.00;;;13.25;80.85
74613;BME280;63119;51.788;8.824;2023-11-19T11:13:44;99294.28;;;13.14;81.57
74613;BME280;63119;51.788;8.824;2023-11-19T11:16:10;99282.47;;;13.07;81.36
74613;BME280;63119;51.788;8.824;2023-11-19T11:18:36;99271.06;;;13.17;81.44
74613;BME280;63119;51.788;8.824;2023-11-19T11:21:11;99278.97;;;12.97;81.96
74613;BME280;63119;51.788;8.824;2023-11-19T11:24:13;99279.28;;;13.04;81.52
74613;BME280;63119;51.788;8.824;2023-11-19T11:36:02;99268.56;;;13.25;80.48
74613;BME280;63119;51.788;8.824;2023-11-19T11:38:36;99276.13;;;13.39;80.60
74613;BME280;63119;51.788;8.824;2023-11-19T11:41:23;99272.19;;;13.24;80.24
74613;BME280;63119;51.788;8.824;2023-11-19T11:43:54;99282.97;;;13.22;81.30
74613;BME280;63119;51.788;8.824;2023-11-19T11:49:27;99284.72;;;13.02;81.80
74613;BME280;63119;51.788;8.824;2023-11-19T11:51:59;99274.63;;;12.96;82.80
74613;BME280;63119;51.788;8.824;2023-11-19T11:54:28;99275.28;;;12.89;84.58
74613;BME280;63119;51.788;8.824;2023-11-19T11:57:12;99277.94;;;12.89;84.25
74613;BME280;63119;51.788;8.824;2023-11-19T12:02:11;99277.13;;;12.88;83.42
74613;BME280;63119;51.788;8.824;2023-11-19T12:04:36;99269.03;;;12.90;83.83
74613;BME280;63119;51.788;8.824;2023-11-19T12:07:13;99274.03;;;12.83;83.27
74613;BME280;63119;51.788;8.824;2023-11-19T12:09:41;99273.50;;;12.89;83.17
74613;BME280;63119;51.788;8.824;2023-11-19T12:12:13;99280.16;;;12.74;83.58
74613;BME280;63119;51.788;8.824;2023-11-19T12:15:01;99288.81;;;12.67;83.96
74613;BME280;63119;51.788;8.824;2023-11-19T12:20:05;99278.16;;;12.57;85.21
74613;BME280;63119;51.788;8.824;2023-11-19T12:22:43;99277.59;;;12.63;85.72
74613;BME280;63119;51.788;8.824;2023-11-19T12:25:10;99286.47;;;12.73;85.18
74613;BME280;63119;51.788;8.824;2023-11-19T12:27:39;99276.41;;;12.86;85.37
74613;BME280;63119;51.788;8.824;2023-11-19T12:30:04;99277.22;;;13.65;81.68
74613;BME280;63119;51.788;8.824;2023-11-19T12:32:45;99271.56;;;14.26;79.48
74613;BME280;63119;51.788;8.824;2023-11-19T12:35:11;99276.28;;;14.41;78.03
74613;BME280;63119;51.788;8.824;2023-11-19T12:37:44;99269.88;;;14.24;78.56
74613;BME280;63119;51.788;8.824;2023-11-19T12:40:22;99266.75;;;14.39;78.00
74613;BME280;63119;51.788;8.824;2023-11-19T12:42:48;99263.13;;;14.40;77.32
74613;BME280;63119;51.788;8.824;2023-11-19T12:45:15;99259.78;;;14.38;77.05
74613;BME280;63119;51.788;8.824;2023-11-19T12:47:42;99258.88;;;14.00;78.49
74613;BME280;63119;51.788;8.824;2023-11-19T12:50:08;99254.16;;;13.75;79.18
74613;BME280;63119;51.788;8.824;2023-11-19T12:52:35;99247.41;;;13.71;78.49
74613;BME280;63119;51.788;8.824;2023-11-19T12:55:00;99242.84;;;13.54;80.09
74613;BME280;63119;51.788;8.824;2023-11-19T12:57:42;99242.28;;;13.60;80.37
74613;BME280;63119;51.788;8.824;2023-11-19T13:00:18;99250.34;;;13.78;78.66
74613;BME280;63119;51.788;8.824;2023-11-19T13:02:50;99247.59;;;13.60;79.24
74613;BME280;63119;51.788;8.824;2023-11-19T13:05:25;99242.09;;;13.71;78.47
74613;BME280;63119;51.788;8.824;2023-11-19T13:10:26;99236.00;;;14.07;76.31
74613;BME280;63119;51.788;8.824;2023-11-19T13:13:07;99234.94;;;14.00;76.43
74613;BME280;63119;51.788;8.824;2023-11-19T13:15:35;99246.72;;;13.88;77.27